createdAt,value
2023-04-18T00:01:49.064Z,7.70
2023-04-18T00:04:21.432Z,7.60
2023-04-18T00:06:53.915Z,7.70
2023-04-18T00:09:26.828Z,7.70
2023-04-18T00:11:58.894Z,7.70
2023-04-18T00:14:34.627Z,7.70
2023-04-18T00:17:10.911Z,7.70
2023-04-18T00:19:44.157Z,7.70
2023-04-18T00:22:17.409Z,7.70
2023-04-18T00:24:53.178Z,7.70
2023-04-18T00:27:25.344Z,7.70
2023-04-18T00:29:57.666Z,7.70
2023-04-18T00:32:29.707Z,7.70
2023-04-18T00:35:02.209Z,7.70
2023-04-18T00:37:35.423Z,7.70
2023-04-18T00:40:08.878Z,7.70
2023-04-18T00:42:41.893Z,7.70
2023-04-18T00:45:13.890Z,7.70
2023-04-18T00:47:46.011Z,7.70
2023-04-18T00:50:19.775Z,7.70
2023-04-18T00:52:54.541Z,7.80
2023-04-18T00:55:26.741Z,7.70
2023-04-18T00:57:59.510Z,7.70
2023-04-18T01:00:31.685Z,7.80
2023-04-18T01:03:04.037Z,7.70
2023-04-18T01:05:38.140Z,7.70
2023-04-18T01:08:11.197Z,7.70
2023-04-18T01:10:43.444Z,7.70
2023-04-18T01:13:18.044Z,7.70
2023-04-18T01:15:52.221Z,7.70
2023-04-18T01:18:26.811Z,7.70
2023-04-18T01:21:00.345Z,7.70
2023-04-18T01:23:32.781Z,7.80
2023-04-18T01:26:05.540Z,7.70
2023-04-18T01:28:37.961Z,7.70
2023-04-18T01:31:10.196Z,7.70
2023-04-18T01:33:42.445Z,7.70
2023-04-18T01:36:14.704Z,7.70
2023-04-18T01:38:47.128Z,7.70
2023-04-18T01:41:19.343Z,7.70
2023-04-18T01:43:51.734Z,7.70
2023-04-18T01:46:23.896Z,7.70
2023-04-18T01:48:56.864Z,7.70
2023-04-18T01:51:29.668Z,7.70
2023-04-18T01:54:02.113Z,7.60
2023-04-18T01:56:34.310Z,7.70
2023-04-18T01:59:06.442Z,7.60
2023-04-18T02:01:38.417Z,7.60
2023-04-18T02:04:11.239Z,7.60
2023-04-18T02:06:43.344Z,7.70
2023-04-18T02:09:15.384Z,7.70
2023-04-18T02:11:47.330Z,7.60
2023-04-18T02:14:19.290Z,7.60
2023-04-18T02:16:51.546Z,7.60
2023-04-18T02:19:24.317Z,7.60
2023-04-18T02:21:56.645Z,7.60
2023-04-18T02:24:28.741Z,7.60
2023-04-18T02:27:00.918Z,7.50
2023-04-18T02:29:32.934Z,7.50
2023-04-18T02:32:05.418Z,7.50
2023-04-18T02:34:37.802Z,7.50
2023-04-18T02:37:10.231Z,7.50
2023-04-18T02:39:42.284Z,7.50
2023-04-18T02:42:14.586Z,7.50
2023-04-18T02:44:46.683Z,7.40
2023-04-18T02:47:18.734Z,7.40
2023-04-18T02:49:51.041Z,7.40
2023-04-18T02:52:25.023Z,7.40
2023-04-18T02:54:57.059Z,7.40
2023-04-18T02:57:29.040Z,7.30
2023-04-18T03:03:48.107Z,7.40
2023-04-18T03:06:20.170Z,7.30
2023-04-18T03:08:52.271Z,7.30
2023-04-18T03:15:37.160Z,7.20
2023-04-18T03:18:09.265Z,7.20
2023-04-18T03:20:43.207Z,7.20
2023-04-18T03:23:15.278Z,7.20
2023-04-18T03:25:47.381Z,7.10
2023-04-18T03:28:19.400Z,7.10
2023-04-18T03:30:51.470Z,7.10
2023-04-18T03:33:24.079Z,7.00
2023-04-18T03:35:56.262Z,7.00
2023-04-18T03:38:28.358Z,7.00
2023-04-18T03:41:01.020Z,7.00
2023-04-18T03:43:33.046Z,7.00
2023-04-18T03:46:05.480Z,7.00
2023-04-18T03:48:37.587Z,7.00
2023-04-18T03:51:09.697Z,6.90
2023-04-18T03:53:42.299Z,6.80
2023-04-18T03:56:14.503Z,6.90
2023-04-18T03:58:46.502Z,6.80
2023-04-18T04:01:18.590Z,6.80
2023-04-18T04:03:50.801Z,6.80
2023-04-18T04:06:23.201Z,6.80
2023-04-18T04:08:55.578Z,6.70
2023-04-18T04:11:27.532Z,6.80
2023-04-18T04:13:59.603Z,6.80
2023-04-18T04:16:31.904Z,6.80
2023-04-18T04:19:04.658Z,6.80
2023-04-18T04:21:36.745Z,6.80
2023-04-18T04:24:09.490Z,6.80
2023-04-18T04:26:43.301Z,6.70
2023-04-18T04:29:16.544Z,6.70
2023-04-18T04:31:48.940Z,6.70
2023-04-18T04:34:21.655Z,6.70
2023-04-18T04:36:55.106Z,6.70
2023-04-18T04:39:27.333Z,6.70
2023-04-18T04:42:01.325Z,6.70
2023-04-18T04:44:55.854Z,6.70
2023-04-18T04:47:28.386Z,6.70
2023-04-18T04:50:00.531Z,6.70
2023-04-18T04:52:33.410Z,6.60
2023-04-18T04:55:06.125Z,6.60
2023-04-18T04:57:38.524Z,6.60
2023-04-18T05:00:11.371Z,6.60
2023-04-18T05:02:45.158Z,6.60
2023-04-18T05:05:18.736Z,6.60
2023-04-18T05:07:50.923Z,6.60
2023-04-18T05:10:23.229Z,6.60
2023-04-18T05:13:01.449Z,6.60
2023-04-18T05:15:34.940Z,6.60
2023-04-18T05:18:07.453Z,6.60
2023-04-18T05:20:39.571Z,6.60
2023-04-18T05:23:12.619Z,6.70
2023-04-18T05:25:44.684Z,6.60
2023-04-18T05:28:17.026Z,6.60
2023-04-18T05:30:49.076Z,6.70
2023-04-18T05:33:21.920Z,6.70
2023-04-18T05:35:54.701Z,6.70
2023-04-18T05:38:27.252Z,6.70
2023-04-18T05:41:00.376Z,6.80
2023-04-18T05:43:34.050Z,6.80
2023-04-18T05:46:06.404Z,6.80
2023-04-18T05:48:39.794Z,6.90
2023-04-18T05:51:11.981Z,6.90
2023-04-18T05:53:44.208Z,6.90
2023-04-18T05:56:16.458Z,7.00
2023-04-18T05:58:51.260Z,7.00
2023-04-18T06:01:23.870Z,7.10
2023-04-18T06:03:56.526Z,7.10
2023-04-18T06:06:29.045Z,7.10
2023-04-18T06:09:02.453Z,7.20
2023-04-18T06:11:35.781Z,7.30
2023-04-18T06:14:07.910Z,7.30
2023-04-18T06:16:40.031Z,7.40
2023-04-18T06:19:12.198Z,7.50
2023-04-18T06:21:44.226Z,7.50
2023-04-18T06:24:17.156Z,7.60
2023-04-18T06:26:49.368Z,7.60
2023-04-18T06:29:23.121Z,7.60
2023-04-18T06:31:58.180Z,7.60
2023-04-18T06:34:30.531Z,7.50
2023-04-18T06:37:02.737Z,7.50
2023-04-18T06:39:35.010Z,7.40
2023-04-18T06:42:06.982Z,7.50
2023-04-18T06:44:39.572Z,7.40
2023-04-18T06:47:13.884Z,7.60
2023-04-18T06:49:46.321Z,7.50
2023-04-18T06:52:18.994Z,7.50
2023-04-18T06:54:50.990Z,7.50
2023-04-18T06:57:23.218Z,7.60
2023-04-18T06:59:56.243Z,7.60
2023-04-18T07:02:28.460Z,7.60
2023-04-18T07:05:00.755Z,7.60
2023-04-18T07:07:34.888Z,7.70
2023-04-18T07:10:17.524Z,7.70
2023-04-18T07:12:49.588Z,7.80
2023-04-18T07:15:21.756Z,7.80
2023-04-18T07:17:54.089Z,8.00
2023-04-18T07:20:26.278Z,7.90
2023-04-18T07:22:58.515Z,8.00
2023-04-18T07:25:30.664Z,8.10
2023-04-18T07:28:03.802Z,8.10
2023-04-18T07:30:36.185Z,8.20
2023-04-18T07:33:08.912Z,8.30
2023-04-18T07:35:41.008Z,8.30
2023-04-18T07:38:14.742Z,8.40
2023-04-18T07:40:47.086Z,8.50
2023-04-18T07:43:27.216Z,8.60
2023-04-18T07:45:59.642Z,8.60
2023-04-18T07:48:32.386Z,8.70
2023-04-18T07:51:04.852Z,8.80
2023-04-18T07:53:37.416Z,8.90
2023-04-18T07:56:15.349Z,8.90
2023-04-18T07:58:47.470Z,9.00
2023-04-18T08:01:23.361Z,9.00
2023-04-18T08:04:01.730Z,9.10
2023-04-18T08:06:34.762Z,9.20
2023-04-18T08:09:06.912Z,9.30
2023-04-18T08:11:42.341Z,9.40
2023-04-18T08:14:14.455Z,9.40
2023-04-18T08:16:47.187Z,9.40
2023-04-18T08:19:19.330Z,9.50
2023-04-18T08:21:52.107Z,9.50
2023-04-18T08:24:24.230Z,9.70
2023-04-18T08:26:57.534Z,9.80
2023-04-18T08:29:29.849Z,9.90
2023-04-18T08:32:02.859Z,10.00
2023-04-18T08:34:38.123Z,10.20
2023-04-18T08:37:11.012Z,10.50
2023-04-18T08:39:43.091Z,10.60
2023-04-18T08:42:19.249Z,10.70
2023-04-18T08:44:54.091Z,10.70
2023-04-18T08:47:30.136Z,10.70
2023-04-18T08:50:02.655Z,10.60
2023-04-18T08:52:37.888Z,10.60
2023-04-18T08:55:10.693Z,10.50
2023-04-18T08:57:43.528Z,10.60
2023-04-18T09:00:17.833Z,10.70
2023-04-18T09:02:56.873Z,10.90
2023-04-18T09:05:29.960Z,11.10
2023-04-18T09:08:22.197Z,11.40
2023-04-18T09:11:15.233Z,11.50
2023-04-18T09:14:04.608Z,11.70
2023-04-18T09:16:50.578Z,11.90
2023-04-18T09:19:23.913Z,11.90
2023-04-18T09:22:01.295Z,11.90
2023-04-18T09:24:35.721Z,11.90
2023-04-18T09:27:14.447Z,11.80
2023-04-18T09:29:55.086Z,11.60
2023-04-18T09:32:30.696Z,11.50
2023-04-18T09:35:05.513Z,11.40
2023-04-18T09:37:37.940Z,11.40
2023-04-18T09:40:21.240Z,11.30
2023-04-18T09:42:54.666Z,11.30
2023-04-18T09:45:27.560Z,11.20
2023-04-18T09:47:59.908Z,11.20
2023-04-18T09:50:33.780Z,11.20
2023-04-18T09:53:08.392Z,11.30
2023-04-18T09:55:42.796Z,11.40
2023-04-18T09:58:17.607Z,11.50
2023-04-18T10:00:54.118Z,11.60
2023-04-18T10:03:34.836Z,11.70
2023-04-18T10:06:17.960Z,11.80
2023-04-18T10:08:52.564Z,11.90
2023-04-18T10:11:25.270Z,12.00
2023-04-18T10:14:02.323Z,12.00
2023-04-18T10:16:39.622Z,12.10
2023-04-18T10:19:24.388Z,12.10
2023-04-18T10:22:01.838Z,12.10
2023-04-18T10:24:50.468Z,12.10
2023-04-18T10:27:49.193Z,12.10
2023-04-18T10:30:41.198Z,12.10
2023-04-18T10:33:31.853Z,12.20
2023-04-18T10:36:09.523Z,12.20
2023-04-18T10:38:53.799Z,12.30
2023-04-18T10:41:32.679Z,12.40
2023-04-18T10:44:11.747Z,12.50
2023-04-18T10:46:52.595Z,12.60
2023-04-18T10:49:54.007Z,12.70
2023-04-18T10:52:27.669Z,12.80
2023-04-18T10:55:24.403Z,12.90
2023-04-18T10:57:58.748Z,13.00
2023-04-18T11:00:32.048Z,13.00
2023-04-18T11:03:05.066Z,13.10
2023-04-18T11:05:38.129Z,13.10
2023-04-18T11:08:23.851Z,13.10
2023-04-18T11:10:59.871Z,13.10
2023-04-18T11:13:34.505Z,13.10
2023-04-18T11:16:08.326Z,13.10
2023-04-18T11:18:43.822Z,13.10
2023-04-18T11:21:16.425Z,13.20
2023-04-18T11:23:48.998Z,13.20
2023-04-18T11:26:24.905Z,13.20
2023-04-18T11:28:58.302Z,13.20
2023-04-18T11:31:31.605Z,13.20
2023-04-18T11:34:03.807Z,13.10
2023-04-18T11:36:38.122Z,13.00
2023-04-18T11:39:15.281Z,12.90
2023-04-18T11:41:51.622Z,12.90
2023-04-18T11:44:25.637Z,12.80
2023-04-18T11:46:58.194Z,12.70
2023-04-18T11:49:32.995Z,12.70
2023-04-18T11:52:13.469Z,12.60
2023-04-18T11:54:45.670Z,12.60
2023-04-18T11:57:29.727Z,12.60
2023-04-18T12:00:03.541Z,12.60
2023-04-18T12:02:49.756Z,12.60
2023-04-18T12:05:31.271Z,12.60
2023-04-18T12:08:07.724Z,12.60
2023-04-18T12:10:47.306Z,12.70
2023-04-18T12:13:32.826Z,12.70
2023-04-18T12:16:06.309Z,12.70
2023-04-18T12:18:39.541Z,12.70
2023-04-18T12:21:13.960Z,12.70
2023-04-18T12:23:48.257Z,12.70
2023-04-18T12:26:22.991Z,12.80
2023-04-18T12:28:55.258Z,12.80
2023-04-18T12:31:31.271Z,13.00
2023-04-18T12:34:05.260Z,13.10
2023-04-18T12:36:37.815Z,13.20
2023-04-18T12:39:10.571Z,13.40
2023-04-18T12:41:44.105Z,13.50
2023-04-18T12:44:16.233Z,13.60
2023-04-18T12:46:48.553Z,13.70
2023-04-18T12:49:21.499Z,13.70
2023-04-18T12:51:53.863Z,13.80
2023-04-18T12:54:26.249Z,13.80
2023-04-18T12:56:58.358Z,13.90
2023-04-18T12:59:31.011Z,14.00
2023-04-18T13:02:03.380Z,14.00
2023-04-18T13:04:36.753Z,14.00
2023-04-18T13:07:09.119Z,14.10
2023-04-18T13:09:41.569Z,14.10
2023-04-18T13:12:13.959Z,14.00
2023-04-18T13:14:46.623Z,14.00
2023-04-18T13:17:18.854Z,14.00
2023-04-18T13:19:51.884Z,14.10
2023-04-18T13:22:24.132Z,14.20
2023-04-18T13:24:56.461Z,14.20
2023-04-18T13:27:29.693Z,14.20
2023-04-18T13:30:02.325Z,14.30
2023-04-18T13:32:35.877Z,14.40
2023-04-18T13:35:09.337Z,14.50
2023-04-18T13:37:42.011Z,14.50
2023-04-18T13:40:14.117Z,14.40
2023-04-18T13:42:46.439Z,14.30
2023-04-18T13:45:19.130Z,14.20
2023-04-18T13:47:51.502Z,14.20
2023-04-18T13:50:24.210Z,14.20
2023-04-18T13:52:56.688Z,14.20
2023-04-18T13:55:28.957Z,14.10
2023-04-18T13:58:04.539Z,14.10
2023-04-18T14:00:36.647Z,14.10
2023-04-18T14:03:10.468Z,14.10
2023-04-18T14:05:43.337Z,14.10
2023-04-18T14:08:21.848Z,14.10
2023-04-18T14:20:11.800Z,13.90
2023-04-18T14:22:53.046Z,13.90
2023-04-18T14:25:25.832Z,13.90
2023-04-18T14:28:09.746Z,13.90
2023-04-18T14:30:42.534Z,14.00
2023-04-18T14:33:14.600Z,14.00
2023-04-18T14:35:46.824Z,14.00
2023-04-18T14:38:19.499Z,14.00
2023-04-18T14:40:52.112Z,14.00
2023-04-18T14:43:25.878Z,14.00
2023-04-18T14:45:59.590Z,14.00
2023-04-18T14:48:32.289Z,14.00
2023-04-18T14:51:04.637Z,14.00
2023-04-18T14:53:36.932Z,14.10
2023-04-18T14:56:09.224Z,14.00
2023-04-18T14:58:42.373Z,14.00
2023-04-18T15:01:14.955Z,14.00
2023-04-18T15:04:08.818Z,14.10
2023-04-18T15:06:41.696Z,14.20
2023-04-18T15:09:15.536Z,14.20
2023-04-18T15:11:47.669Z,14.20
2023-04-18T15:14:21.383Z,14.20
2023-04-18T15:16:53.722Z,14.20
2023-04-18T15:19:27.807Z,14.20
2023-04-18T15:22:01.738Z,14.20
2023-04-18T15:24:34.116Z,14.20
2023-04-18T15:27:07.855Z,14.20
2023-04-18T15:29:40.379Z,14.10
2023-04-18T15:32:14.532Z,14.10
2023-04-18T15:34:47.237Z,14.10
2023-04-18T15:37:19.549Z,14.00
2023-04-18T15:39:52.445Z,14.00
2023-04-18T15:42:24.755Z,13.90
2023-04-18T15:44:59.803Z,13.80
2023-04-18T15:50:33.954Z,13.70
2023-04-18T15:53:06.891Z,13.70
2023-04-18T15:55:39.183Z,13.60
2023-04-18T15:58:12.220Z,13.60
2023-04-18T16:00:44.674Z,13.60
2023-04-18T16:03:17.697Z,13.50
2023-04-18T16:05:51.547Z,13.50
2023-04-18T16:08:23.731Z,13.50
2023-04-18T16:10:55.824Z,13.40
2023-04-18T16:13:27.914Z,13.30
2023-04-18T16:16:00.318Z,13.30
2023-04-18T16:18:34.217Z,13.30
2023-04-18T16:21:06.802Z,13.30
2023-04-18T16:23:38.974Z,13.20
2023-04-18T16:26:11.269Z,13.30
2023-04-18T16:28:43.525Z,13.20
2023-04-18T16:31:16.633Z,13.20
2023-04-18T16:33:53.419Z,13.20
2023-04-18T16:36:26.406Z,13.20
2023-04-18T16:38:58.574Z,13.20
2023-04-18T16:41:31.007Z,13.10
2023-04-18T16:44:05.229Z,13.10
2023-04-18T16:46:37.370Z,13.10
2023-04-18T16:49:09.920Z,13.00
2023-04-18T16:51:42.721Z,13.00
2023-04-18T16:54:15.294Z,12.90
2023-04-18T16:57:05.682Z,12.90
2023-04-18T16:59:38.133Z,12.90
2023-04-18T17:02:12.829Z,12.80
2023-04-18T17:04:53.703Z,12.80
2023-04-18T17:07:28.799Z,12.80
2023-04-18T17:10:04.387Z,12.80
2023-04-18T17:12:37.791Z,12.80
2023-04-18T17:15:11.277Z,12.80
2023-04-18T17:17:43.535Z,12.80
2023-04-18T17:20:17.933Z,12.70
2023-04-18T17:22:51.228Z,12.70
2023-04-18T17:25:23.556Z,12.70
2023-04-18T17:27:55.915Z,12.70
2023-04-18T17:30:59.000Z,12.60
2023-04-18T17:33:33.088Z,12.60
2023-04-18T17:36:08.480Z,12.60
2023-04-18T17:38:41.362Z,12.60
2023-04-18T17:41:21.629Z,12.60
2023-04-18T17:44:08.476Z,12.50
2023-04-18T17:46:41.554Z,12.50
2023-04-18T17:49:14.460Z,12.50
2023-04-18T17:51:47.140Z,12.50
2023-04-18T17:54:19.773Z,12.40
2023-04-18T17:56:52.072Z,12.40
2023-04-18T17:59:25.313Z,12.40
2023-04-18T18:01:58.901Z,12.30
2023-04-18T18:04:32.575Z,12.30
2023-04-18T18:07:06.145Z,12.30
2023-04-18T18:09:41.975Z,12.30
2023-04-18T18:12:14.409Z,12.20
2023-04-18T18:14:46.933Z,12.20
2023-04-18T18:17:20.956Z,12.20
2023-04-18T18:19:53.607Z,12.10
2023-04-18T18:22:26.289Z,12.10
2023-04-18T18:24:58.949Z,12.00
2023-04-18T18:27:31.934Z,12.00
2023-04-18T18:30:05.012Z,12.00
2023-04-18T18:32:38.756Z,11.90
2023-04-18T18:35:11.632Z,11.90
2023-04-18T18:37:44.656Z,11.90
2023-04-18T18:40:17.937Z,11.80
2023-04-18T18:42:51.690Z,11.80
2023-04-18T18:45:27.316Z,11.70
2023-04-18T18:48:02.116Z,11.70
2023-04-18T18:50:37.354Z,11.60
2023-04-18T18:53:10.958Z,11.60
2023-04-18T18:55:45.489Z,11.60
2023-04-18T18:58:19.570Z,11.60
2023-04-18T19:00:56.777Z,11.50
2023-04-18T19:03:39.378Z,11.50
2023-04-18T19:06:13.684Z,11.50
2023-04-18T19:08:47.718Z,11.50
2023-04-18T19:11:21.953Z,11.40
2023-04-18T19:13:55.842Z,11.40
2023-04-18T19:16:31.549Z,11.40
2023-04-18T19:19:10.294Z,11.30
2023-04-18T19:21:46.935Z,11.30
2023-04-18T19:24:21.459Z,11.30
2023-04-18T19:26:56.515Z,11.30
2023-04-18T19:29:33.021Z,11.20
2023-04-18T19:32:09.036Z,11.20
2023-04-18T19:34:43.992Z,11.20
2023-04-18T19:37:18.799Z,11.20
2023-04-18T19:39:54.837Z,11.20
2023-04-18T19:42:29.292Z,11.10
2023-04-18T19:45:04.234Z,11.10
2023-04-18T19:47:39.207Z,11.10
2023-04-18T19:50:16.415Z,11.00
2023-04-18T19:52:52.423Z,11.00
2023-04-18T19:55:27.297Z,11.00
2023-04-18T19:58:03.594Z,11.00
2023-04-18T20:00:38.623Z,11.00
2023-04-18T20:03:16.776Z,11.00
2023-04-18T20:05:52.318Z,11.00
2023-04-18T20:08:28.131Z,10.90
2023-04-18T20:11:02.871Z,10.90
2023-04-18T20:13:40.127Z,10.90
2023-04-18T20:16:14.244Z,10.90
2023-04-18T20:18:51.301Z,10.90
2023-04-18T20:21:25.768Z,10.80
2023-04-18T20:24:01.516Z,10.80
2023-04-18T20:26:37.844Z,10.80
2023-04-18T20:29:13.543Z,10.80
2023-04-18T20:31:50.619Z,10.80
2023-04-18T20:34:25.788Z,10.80
2023-04-18T20:37:00.532Z,10.70
2023-04-18T20:39:34.657Z,10.70
2023-04-18T20:42:15.037Z,10.70
2023-04-18T20:44:50.925Z,10.70
2023-04-18T20:47:27.662Z,10.70
2023-04-18T20:50:01.810Z,10.70
2023-04-18T20:52:35.554Z,10.70
2023-04-18T20:55:09.693Z,10.70
2023-04-18T20:57:42.306Z,10.70
2023-04-18T21:00:16.245Z,10.70
2023-04-18T21:02:50.658Z,10.70
2023-04-18T21:05:23.548Z,10.60
2023-04-18T21:07:56.544Z,10.60
2023-04-18T21:10:30.973Z,10.60
2023-04-18T21:13:03.528Z,10.60
2023-04-18T21:15:36.570Z,10.60
2023-04-18T21:18:09.605Z,10.60
2023-04-18T21:20:42.804Z,10.60
2023-04-18T21:23:15.188Z,10.50
2023-04-18T21:25:48.022Z,10.50
2023-04-18T21:28:20.649Z,10.50
2023-04-18T21:30:53.203Z,10.50
2023-04-18T21:33:26.366Z,10.50
2023-04-18T21:35:58.842Z,10.40
2023-04-18T21:38:32.274Z,10.40
2023-04-18T21:41:06.155Z,10.40
2023-04-18T21:43:38.880Z,10.40
2023-04-18T21:46:12.662Z,10.40
2023-04-18T21:48:47.608Z,10.40
2023-04-18T21:51:20.073Z,10.40
2023-04-18T21:53:52.520Z,10.40
2023-04-18T21:56:24.783Z,10.40
2023-04-18T21:58:56.993Z,10.40
2023-04-18T22:01:29.266Z,10.30
2023-04-18T22:04:02.154Z,10.30
2023-04-18T22:06:35.386Z,10.30
2023-04-18T22:09:08.460Z,10.30
2023-04-18T22:11:40.752Z,10.30
2023-04-18T22:14:14.820Z,10.30
2023-04-18T22:16:47.643Z,10.30
2023-04-18T22:19:20.929Z,10.30
2023-04-18T22:21:53.068Z,10.20
2023-04-18T22:24:26.083Z,10.30
2023-04-18T22:27:01.351Z,10.20
2023-04-18T22:29:33.750Z,10.20
2023-04-18T22:32:05.994Z,10.20
2023-04-18T22:34:38.161Z,10.20
2023-04-18T22:37:10.492Z,10.20
2023-04-18T22:39:42.710Z,10.20
2023-04-18T22:42:14.745Z,10.10
2023-04-18T22:44:47.136Z,10.10
2023-04-18T22:47:19.365Z,10.10
2023-04-18T22:49:52.221Z,10.10
2023-04-18T22:52:25.351Z,10.10
2023-04-18T22:54:57.515Z,10.10
2023-04-18T22:57:29.571Z,10.10
2023-04-18T23:00:01.621Z,10.00
2023-04-18T23:02:36.466Z,10.00
2023-04-18T23:05:10.777Z,10.00
2023-04-18T23:07:42.937Z,10.00
2023-04-18T23:10:14.950Z,10.00
2023-04-18T23:12:46.968Z,10.00
2023-04-18T23:15:19.226Z,10.00
2023-04-18T23:17:54.239Z,9.90
2023-04-18T23:20:26.374Z,10.00
2023-04-18T23:22:58.405Z,9.90
2023-04-18T23:25:33.668Z,9.90
2023-04-18T23:28:06.410Z,9.90
2023-04-18T23:30:38.724Z,9.90
2023-04-18T23:33:10.949Z,9.90
2023-04-18T23:35:43.426Z,9.90
2023-04-18T23:38:15.531Z,9.90
2023-04-18T23:40:47.571Z,9.80
2023-04-18T23:43:19.513Z,9.90
2023-04-18T23:45:51.655Z,9.80
2023-04-18T23:48:23.644Z,9.80
2023-04-18T23:50:55.871Z,9.80
2023-04-18T23:53:27.944Z,9.80
2023-04-18T23:56:00.051Z,9.80
2023-04-18T23:58:32.137Z,9.80
